Morata de Tajuna, Spain
Current Conditions -  °F | °C
As of 11:00 AM on Wednesday 26 Nov 2014 (Local Time) from LEGT Reporting Station
Scattered Clouds Scattered Clouds  
Wind Chill: 52°   Ceiling: Unl
Heat Index: 52°   Visibility: 6mi
Dew Point: 46°   Wind: 10mph
Humidity: 82%   Direction: 260°W
Pressure: 29.94"   Gusts: NA
Location:  40.23°N, 3.43°W
Report Text: LEGT 261000Z 26009KT 9999 FEW020 SCT035 11/08 Q1014
Loading
Personal Weather Stations






























Interactive Weather Map New forecast layout! Learn more

10-Day Weather Forecast

Advertisements
Track Severe Weather on mobile